Time;durP1;ratioP1;P1;durP2;ratioP2;P2;SDS_P1;SDS_P2;PMS_P1;PMS_P2;Temp;Humidity;BMP_temperature;BMP_pressure;BME280_temperature;BME280_humidity;BME280_pressure;Samples;Min_cycle;Max_cycle;Signal;HPM_P1;HPM_P2
2022/10/19 00:01:22;;;;;;;11.90;5.30;;;12.30;99.90;;;;;;5061853;28;25124;-69
2022/10/19 00:03:51;;;;;;;18.42;5.25;;;12.40;99.90;;;;;;5033394;28;25156;-68
2022/10/19 00:06:25;;;;;;;18.27;6.30;;;12.40;99.90;;;;;;5061818;28;25057;-69
2022/10/19 00:09:03;;;;;;;12.82;6.05;;;12.40;99.90;;;;;;5077122;28;25088;-69
2022/10/19 00:11:31;;;;;;;23.58;6.28;;;12.30;99.90;;;;;;5074553;28;25061;-67
2022/10/19 00:13:57;;;;;;;14.40;5.78;;;12.50;99.90;;;;;;5090302;28;25075;-70
2022/10/19 00:16:26;;;;;;;19.58;5.88;;;12.40;99.90;;;;;;5044091;28;25080;-70
2022/10/19 00:18:56;;;;;;;14.63;6.00;;;12.50;99.90;;;;;;5083306;28;25051;-69
2022/10/19 00:21:21;;;;;;;15.95;6.05;;;12.40;99.90;;;;;;5072935;28;25059;-69
2022/10/19 00:23:47;;;;;;;15.07;5.90;;;12.40;99.90;;;;;;5067781;28;25051;-69
2022/10/19 00:26:13;;;;;;;12.70;5.93;;;12.50;99.90;;;;;;5059486;28;25143;-69
2022/10/19 00:28:39;;;;;;;11.32;5.15;;;12.50;99.90;;;;;;5042431;28;25059;-70
2022/10/19 00:31:08;;;;;;;13.50;6.00;;;12.40;99.90;;;;;;5048697;28;25077;-69
2022/10/19 00:33:34;;;;;;;15.52;5.20;;;12.60;99.90;;;;;;5054485;28;25088;-71
2022/10/19 00:36:01;;;;;;;15.10;5.53;;;12.50;99.90;;;;;;5048011;28;25074;-70
2022/10/19 00:38:27;;;;;;;16.30;6.13;;;12.60;99.90;;;;;;5062202;28;25101;-69
2022/10/19 00:40:53;;;;;;;16.63;5.90;;;12.60;99.90;;;;;;5064582;28;25145;-72
2022/10/19 00:43:24;;;;;;;12.00;5.68;;;12.60;99.90;;;;;;5046545;28;25096;-70
2022/10/19 00:45:50;;;;;;;14.55;5.28;;;12.50;99.90;;;;;;5074252;28;25064;-70
2022/10/19 00:48:25;;;;;;;18.10;6.18;;;12.50;99.90;;;;;;5056462;28;25064;-72
2022/10/19 00:50:54;;;;;;;12.73;5.10;;;12.50;99.90;;;;;;5079290;28;25087;-71
2022/10/19 00:53:23;;;;;;;18.35;5.13;;;12.30;99.90;;;;;;5062516;28;25060;-70
2022/10/19 00:55:48;;;;;;;12.20;6.03;;;12.30;99.90;;;;;;5080581;28;26185;-70
2022/10/19 00:58:17;;;;;;;14.77;5.20;;;12.30;99.90;;;;;;5074172;28;25115;-70
2022/10/19 01:00:43;;;;;;;21.67;6.80;;;12.30;99.90;;;;;;5079545;28;25102;-71
2022/10/19 01:03:11;;;;;;;10.68;5.63;;;12.40;99.90;;;;;;5076712;28;25095;-72
2022/10/19 01:05:37;;;;;;;14.90;5.70;;;12.40;99.90;;;;;;5059462;28;25071;-70
2022/10/19 01:08:07;;;;;;;12.40;6.85;;;12.30;99.90;;;;;;5073365;28;25071;-69
2022/10/19 01:11:06;;;;;;;11.43;6.70;;;12.20;99.90;;;;;;5068477;28;25070;-69
2022/10/19 01:14:13;;;;;;;16.90;6.80;;;12.10;99.90;;;;;;5055240;28;25071;-71
2022/10/19 01:17:07;;;;;;;13.38;6.90;;;12.10;99.90;;;;;;5070610;28;25059;-69
2022/10/19 01:19:55;;;;;;;17.88;5.97;;;12.10;99.90;;;;;;5058579;28;25155;-69
2022/10/19 01:23:05;;;;;;;11.48;5.72;;;12.10;99.90;;;;;;5048364;28;25070;-70
2022/10/19 01:25:58;;;;;;;11.98;6.30;;;12.20;99.90;;;;;;5069552;28;25070;-69
2022/10/19 01:28:35;;;;;;;8.38;4.88;;;12.10;99.90;;;;;;5077009;28;25047;-69
2022/10/19 01:31:13;;;;;;;13.02;6.10;;;12.20;99.90;;;;;;5066611;28;25138;-69
2022/10/19 01:33:58;;;;;;;11.50;6.32;;;12.20;99.90;;;;;;5069379;28;25047;-69
2022/10/19 01:36:48;;;;;;;8.38;5.30;;;12.10;99.90;;;;;;5071702;28;25074;-69
2022/10/19 01:39:22;;;;;;;8.98;5.10;;;12.00;99.90;;;;;;5064496;28;25047;-70
2022/10/19 01:41:56;;;;;;;19.73;5.75;;;11.90;99.90;;;;;;5067204;28;25130;-70
2022/10/19 01:44:27;;;;;;;13.02;5.43;;;12.00;99.90;;;;;;5077192;28;25106;-68
2022/10/19 01:47:01;;;;;;;7.07;4.38;;;11.90;99.90;;;;;;5075120;28;25076;-69
2022/10/19 01:49:42;;;;;;;12.45;4.50;;;11.80;99.90;;;;;;5065430;28;25070;-69
2022/10/19 01:52:10;;;;;;;11.50;4.60;;;11.80;99.90;;;;;;5065571;28;24988;-70
2022/10/19 01:54:43;;;;;;;11.75;4.28;;;11.80;99.90;;;;;;5065663;28;25101;-70
2022/10/19 01:57:12;;;;;;;15.70;3.95;;;11.70;99.90;;;;;;5070122;28;25118;-69
2022/10/19 01:59:38;;;;;;;6.68;3.83;;;11.80;99.90;;;;;;5068320;28;25074;-70
2022/10/19 02:02:07;;;;;;;10.80;4.18;;;11.80;99.90;;;;;;5077122;28;25135;-70
2022/10/19 02:04:34;;;;;;;10.80;3.85;;;11.80;99.90;;;;;;5050441;28;25067;-69
2022/10/19 02:07:03;;;;;;;6.40;2.97;;;11.70;99.90;;;;;;5056545;28;25072;-69
2022/10/19 02:09:29;;;;;;;8.93;3.58;;;11.80;99.90;;;;;;5056508;28;25109;-71
2022/10/19 02:11:59;;;;;;;7.15;3.83;;;11.70;99.90;;;;;;5074328;28;25141;-69
2022/10/19 02:14:31;;;;;;;6.03;3.72;;;11.70;99.90;;;;;;5062941;28;25071;-70
2022/10/19 02:17:04;;;;;;;10.57;3.13;;;11.70;99.90;;;;;;5067662;28;25114;-69
2022/10/19 02:19:29;;;;;;;;;;;11.60;99.90;;;;;;5068179;28;25115;-69
2022/10/19 02:21:56;;;;;;;7.68;3.03;;;11.70;99.90;;;;;;5070737;28;24136;-70
2022/10/19 02:24:22;;;;;;;6.90;3.50;;;11.60;99.90;;;;;;5064348;28;25098;-69
2022/10/19 02:26:49;;;;;;;5.80;3.00;;;11.60;99.90;;;;;;5079525;28;25171;-69
2022/10/19 02:29:15;;;;;;;9.90;3.50;;;11.50;99.90;;;;;;5073951;28;25166;-70
2022/10/19 02:31:41;;;;;;;11.95;3.20;;;11.50;99.90;;;;;;5058053;28;25119;-70
2022/10/19 02:34:07;;;;;;;5.55;3.38;;;11.50;99.90;;;;;;5070983;28;25119;-70
2022/10/19 02:36:32;;;;;;;5.60;3.30;;;11.50;99.90;;;;;;5081400;28;25106;-70
2022/10/19 02:38:58;;;;;;;9.02;3.50;;;11.40;99.90;;;;;;5081829;28;25085;-70
2022/10/19 02:41:29;;;;;;;14.13;3.40;;;11.40;99.90;;;;;;5077765;28;25087;-70
2022/10/19 02:44:01;;;;;;;6.95;3.00;;;11.40;99.90;;;;;;5068271;28;25070;-70
2022/10/19 02:47:07;;;;;;;7.60;3.05;;;11.30;99.90;;;;;;5081890;28;25054;-70
2022/10/19 02:49:35;;;;;;;7.75;2.80;;;11.30;99.90;;;;;;5062424;28;25159;-69
2022/10/19 02:52:04;;;;;;;11.52;4.15;;;11.40;99.90;;;;;;5071101;28;25071;-70
2022/10/19 02:54:30;;;;;;;9.60;3.20;;;11.30;99.90;;;;;;5071544;28;25063;-69
2022/10/19 02:56:56;;;;;;;6.65;2.92;;;11.20;99.90;;;;;;5076433;28;25048;-70
2022/10/19 02:59:22;;;;;;;6.20;3.25;;;11.10;99.90;;;;;;5069014;28;25108;-69
2022/10/19 03:01:47;;;;;;;10.93;3.20;;;11.20;99.90;;;;;;5072126;28;25132;-69
2022/10/19 03:04:14;;;;;;;7.90;3.10;;;11.10;99.90;;;;;;5051919;28;25072;-69
2022/10/19 03:06:39;;;;;;;6.75;3.33;;;11.10;99.90;;;;;;5061278;28;25060;-68
2022/10/19 03:09:05;;;;;;;7.93;3.45;;;11.00;99.90;;;;;;5055296;28;25064;-69
2022/10/19 03:11:31;;;;;;;9.68;3.13;;;11.10;99.90;;;;;;5074969;28;25107;-69
2022/10/19 03:13:56;;;;;;;6.47;2.70;;;11.20;99.90;;;;;;5066071;28;25107;-70
2022/10/19 03:16:22;;;;;;;12.85;3.33;;;11.10;99.90;;;;;;5069116;28;25097;-70
2022/10/19 03:18:50;;;;;;;5.15;3.55;;;11.00;99.90;;;;;;5073137;28;25075;-70
2022/10/19 03:21:17;;;;;;;6.65;3.20;;;11.00;99.90;;;;;;5062070;28;25113;-69
2022/10/19 03:23:42;;;;;;;5.18;3.20;;;11.00;99.90;;;;;;5065729;28;25098;-69
2022/10/19 03:26:13;;;;;;;4.88;2.85;;;11.00;99.90;;;;;;5067127;28;25128;-69
2022/10/19 03:28:39;;;;;;;4.57;2.90;;;10.90;99.90;;;;;;5064994;28;25140;-68
2022/10/19 03:31:05;;;;;;;7.05;3.55;;;10.90;99.90;;;;;;5076488;28;25057;-70
2022/10/19 03:33:30;;;;;;;13.27;3.40;;;10.80;99.90;;;;;;5073051;28;25197;-70
2022/10/19 03:36:17;;;;;;;9.90;3.25;;;11.00;99.90;;;;;;5078139;28;25463;-69
2022/10/19 03:38:43;;;;;;;3.83;2.90;;;10.90;99.90;;;;;;5062886;28;25047;-69
2022/10/19 03:41:10;;;;;;;9.68;2.70;;;10.90;99.90;;;;;;5072980;28;25149;-69
2022/10/19 03:43:35;;;;;;;10.38;3.13;;;10.90;99.90;;;;;;5062586;28;25098;-69
2022/10/19 03:46:01;;;;;;;6.25;2.80;;;11.00;99.90;;;;;;5071823;28;25056;-69
2022/10/19 03:48:27;;;;;;;4.88;2.85;;;10.90;99.90;;;;;;5073971;28;25061;-70
2022/10/19 03:51:00;;;;;;;7.13;2.60;;;10.90;99.90;;;;;;5072348;28;25062;-69
2022/10/19 03:53:26;;;;;;;8.07;2.97;;;10.90;99.90;;;;;;5055750;28;25088;-69
2022/10/19 03:55:52;;;;;;;8.88;3.40;;;10.80;99.90;;;;;;5076358;28;25062;-69
2022/10/19 03:58:17;;;;;;;7.28;2.90;;;10.70;99.90;;;;;;5078061;28;25113;-69
2022/10/19 04:00:43;;;;;;;5.35;2.65;;;10.70;99.90;;;;;;5071963;28;25128;-70
2022/10/19 04:03:08;;;;;;;8.48;2.97;;;10.70;99.90;;;;;;5071208;28;25075;-69
2022/10/19 04:05:34;;;;;;;8.80;2.90;;;10.70;99.90;;;;;;5057469;28;25066;-70
2022/10/19 04:07:59;;;;;;;12.75;2.65;;;10.70;99.90;;;;;;5072589;28;24964;-69
2022/10/19 04:10:25;;;;;;;5.35;2.67;;;10.70;99.90;;;;;;5076239;28;25069;-69
2022/10/19 04:12:50;;;;;;;4.22;2.13;;;10.70;99.90;;;;;;5068604;28;25067;-69
2022/10/19 04:15:16;;;;;;;3.45;2.20;;;10.70;99.90;;;;;;5073955;28;25144;-70
2022/10/19 04:17:42;;;;;;;4.93;2.58;;;10.70;99.90;;;;;;5063975;28;25112;-69
2022/10/19 04:20:08;;;;;;;5.03;2.75;;;10.70;99.90;;;;;;5072392;28;25064;-69
2022/10/19 04:22:33;;;;;;;10.30;3.25;;;10.70;99.90;;;;;;5077276;28;25057;-70
2022/10/19 04:24:59;;;;;;;6.50;2.90;;;10.70;99.90;;;;;;5065914;28;25140;-70
2022/10/19 04:27:24;;;;;;;5.07;2.72;;;10.60;99.90;;;;;;5059991;28;25055;-69
2022/10/19 04:29:50;;;;;;;5.63;2.60;;;10.60;99.90;;;;;;5060388;28;25066;-69
2022/10/19 04:32:16;;;;;;;7.43;3.22;;;10.60;99.90;;;;;;5053684;28;25109;-70
2022/10/19 04:34:41;;;;;;;5.72;2.83;;;10.60;99.90;;;;;;5057966;28;25064;-68
2022/10/19 04:37:07;;;;;;;11.48;3.72;;;10.60;99.90;;;;;;5063819;28;25071;-70
2022/10/19 04:39:33;;;;;;;7.18;3.55;;;10.60;99.90;;;;;;5062743;28;25158;-70
2022/10/19 04:41:58;;;;;;;5.63;2.95;;;10.60;99.90;;;;;;5061909;28;25062;-69
2022/10/19 04:44:24;;;;;;;7.25;3.15;;;10.60;99.90;;;;;;5058345;28;25125;-68
2022/10/19 04:46:49;;;;;;;12.02;3.28;;;10.60;99.90;;;;;;5073353;28;25096;-70
2022/10/19 04:49:15;;;;;;;7.10;3.30;;;10.50;99.90;;;;;;5051500;28;25138;-71
2022/10/19 04:51:40;;;;;;;3.72;2.17;;;10.50;99.90;;;;;;5069798;28;25109;-68
2022/10/19 04:54:06;;;;;;;6.63;3.30;;;10.50;99.90;;;;;;5085663;28;25057;-70
2022/10/19 04:56:32;;;;;;;10.63;2.83;;;10.50;99.90;;;;;;5091180;28;25128;-69
2022/10/19 04:58:59;;;;;;;5.22;2.92;;;10.40;99.90;;;;;;5082351;28;25088;-69
2022/10/19 05:01:26;;;;;;;8.75;2.58;;;10.50;99.90;;;;;;5089935;28;25064;-68
2022/10/19 05:04:00;;;;;;;5.78;3.10;;;10.50;99.90;;;;;;5098270;28;25089;-69
2022/10/19 05:06:26;;;;;;;4.93;2.85;;;10.50;99.90;;;;;;5104317;28;25095;-74
2022/10/19 05:08:51;;;;;;;6.40;2.63;;;10.40;99.90;;;;;;5086472;28;25093;-78
2022/10/19 05:11:18;;;;;;;7.28;3.13;;;10.50;99.90;;;;;;5082054;28;25075;-74
2022/10/19 05:13:44;;;;;;;10.30;2.85;;;10.50;99.90;;;;;;5070354;28;25053;-74
2022/10/19 05:16:16;;;;;;;12.95;3.10;;;10.50;99.90;;;;;;5077052;28;25125;-76
2022/10/19 05:18:45;;;;;;;6.03;2.80;;;10.50;99.90;;;;;;5081206;28;25074;-73
2022/10/19 05:21:12;;;;;;;6.95;3.00;;;10.50;99.90;;;;;;5068121;28;25067;-75
2022/10/19 05:23:39;;;;;;;7.22;3.30;;;10.50;99.90;;;;;;5064367;28;25071;-75
2022/10/19 05:26:16;;;;;;;11.98;3.42;;;10.60;99.90;;;;;;5067620;28;25093;-73
2022/10/19 05:28:42;;;;;;;4.80;2.72;;;10.60;99.90;;;;;;5070960;28;25061;-72
2022/10/19 05:31:09;;;;;;;4.90;3.00;;;10.50;99.90;;;;;;5066123;28;25059;-75
2022/10/19 05:33:36;;;;;;;6.65;3.08;;;10.50;99.90;;;;;;5062495;28;25169;-72
2022/10/19 05:36:11;;;;;;;11.73;3.28;;;10.50;99.90;;;;;;5065970;28;25068;-73
2022/10/19 05:38:37;;;;;;;13.68;3.50;;;10.50;99.90;;;;;;5068951;28;25084;-74
2022/10/19 05:41:02;;;;;;;8.40;3.22;;;10.40;99.90;;;;;;5065384;28;25106;-73
2022/10/19 05:43:28;;;;;;;8.63;3.17;;;10.40;99.90;;;;;;5074752;28;25062;-75
2022/10/19 05:45:53;;;;;;;5.22;2.45;;;10.50;99.90;;;;;;5046022;28;25063;-73
2022/10/19 05:48:19;;;;;;;6.22;3.10;;;10.50;99.90;;;;;;5064139;28;25072;-75
2022/10/19 05:50:53;;;;;;;9.75;2.70;;;10.50;99.90;;;;;;5064339;28;25090;-75
2022/10/19 05:53:18;;;;;;;5.90;3.05;;;10.50;99.90;;;;;;5059749;28;25061;-75
2022/10/19 05:55:44;;;;;;;11.45;3.70;;;10.50;99.90;;;;;;5063693;28;25140;-77
2022/10/19 05:58:09;;;;;;;4.60;2.85;;;10.50;99.90;;;;;;5061869;28;25071;-76
2022/10/19 06:00:35;;;;;;;6.82;2.80;;;10.40;99.90;;;;;;5060333;28;25097;-74
2022/10/19 06:03:01;;;;;;;7.88;2.88;;;10.40;99.90;;;;;;5055284;28;25150;-73
2022/10/19 06:05:26;;;;;;;8.32;3.28;;;10.50;99.90;;;;;;5071563;28;25066;-75
2022/10/19 06:07:52;;;;;;;7.07;3.13;;;10.40;99.90;;;;;;5065079;28;25079;-72
2022/10/19 06:10:18;;;;;;;8.82;3.35;;;10.40;99.90;;;;;;5047863;28;25132;-74
2022/10/19 06:12:43;;;;;;;12.15;3.08;;;10.30;99.90;;;;;;5062114;28;25046;-78
2022/10/19 06:15:09;;;;;;;6.90;3.47;;;10.30;99.90;;;;;;5065940;28;25112;-76
2022/10/19 06:17:35;;;;;;;11.40;3.33;;;10.40;99.90;;;;;;5063648;28;25073;-72
2022/10/19 06:20:00;;;;;;;10.65;3.00;;;10.40;99.90;;;;;;5066811;28;25072;-72
2022/10/19 06:22:26;;;;;;;7.10;3.30;;;10.30;99.90;;;;;;5069034;28;25063;-73
2022/10/19 06:24:51;;;;;;;6.32;3.35;;;10.30;99.90;;;;;;5068802;28;25080;-74
2022/10/19 06:27:17;;;;;;;11.57;4.13;;;10.40;99.90;;;;;;5047099;28;25051;-73
2022/10/19 06:29:42;;;;;;;7.38;3.50;;;10.30;99.90;;;;;;5080803;28;25098;-73
2022/10/19 06:32:08;;;;;;;7.95;3.40;;;10.30;99.90;;;;;;5063021;28;25102;-73
2022/10/19 06:34:33;;;;;;;11.45;3.92;;;10.30;99.90;;;;;;5075302;28;25107;-72
2022/10/19 06:36:59;;;;;;;9.10;3.17;;;10.30;99.90;;;;;;5081459;28;25060;-73
2022/10/19 06:39:24;;;;;;;8.63;3.83;;;10.30;99.90;;;;;;5080067;28;25112;-74
2022/10/19 06:41:50;;;;;;;15.25;4.18;;;10.30;99.90;;;;;;5084988;28;25090;-71
2022/10/19 06:44:16;;;;;;;6.22;3.33;;;10.30;99.90;;;;;;5089124;28;25068;-73
2022/10/19 06:46:41;;;;;;;6.55;2.78;;;10.30;99.90;;;;;;5079822;28;25071;-78
2022/10/19 06:49:11;;;;;;;6.30;3.20;;;10.40;99.90;;;;;;5084761;28;25108;-74
2022/10/19 06:51:36;;;;;;;7.15;3.08;;;10.40;99.90;;;;;;5070566;28;25094;-75
2022/10/19 06:54:02;;;;;;;11.00;3.38;;;10.40;99.90;;;;;;5074963;28;25102;-75
2022/10/19 06:56:27;;;;;;;33.88;4.20;;;10.50;99.90;;;;;;5084447;28;25135;-76
2022/10/19 06:58:54;;;;;;;8.02;3.38;;;10.50;99.90;;;;;;5077828;28;25112;-72
2022/10/19 07:01:20;;;;;;;5.72;3.38;;;10.60;99.90;;;;;;5078987;28;25134;-76
2022/10/19 07:03:46;;;;;;;9.05;3.20;;;10.60;99.90;;;;;;5059483;28;25112;-73
2022/10/19 07:06:12;;;;;;;8.98;3.78;;;10.60;99.90;;;;;;5067998;28;25056;-71
2022/10/19 07:08:39;;;;;;;7.53;3.00;;;10.70;99.90;;;;;;5073348;28;25142;-71
2022/10/19 07:11:07;;;;;;;8.15;3.30;;;10.80;99.90;;;;;;5072636;28;25155;-74
2022/10/19 07:13:34;;;;;;;6.47;2.80;;;10.90;99.90;;;;;;5072892;28;25129;-72
2022/10/19 07:16:04;;;;;;;9.45;3.40;;;11.00;99.90;;;;;;5065012;28;25119;-74
2022/10/19 07:18:30;;;;;;;8.85;3.35;;;11.10;99.90;;;;;;5069940;28;25098;-73
2022/10/19 07:21:01;;;;;;;7.07;3.35;;;11.10;99.90;;;;;;5065711;28;25092;-72
2022/10/19 07:23:28;;;;;;;12.27;3.50;;;11.10;99.90;;;;;;5054903;28;25149;-73
2022/10/19 07:25:59;;;;;;;12.15;4.10;;;11.00;99.90;;;;;;5053359;28;25090;-73
2022/10/19 07:28:25;;;;;;;8.95;3.67;;;11.00;99.90;;;;;;5059085;28;25058;-72
2022/10/19 07:30:50;;;;;;;8.00;3.55;;;11.10;99.90;;;;;;5070638;28;25065;-72
2022/10/19 07:33:16;;;;;;;9.10;3.35;;;11.10;99.90;;;;;;5053012;28;25084;-74
2022/10/19 07:35:41;;;;;;;7.45;3.15;;;11.10;99.90;;;;;;5068959;28;25064;-73
2022/10/19 07:38:07;;;;;;;9.13;3.38;;;11.10;99.90;;;;;;5063870;28;25062;-74
2022/10/19 07:40:33;;;;;;;12.55;3.42;;;11.10;99.90;;;;;;5071885;28;25070;-73
2022/10/19 07:42:59;;;;;;;6.53;3.13;;;11.10;99.90;;;;;;5077178;28;25136;-73
2022/10/19 07:45:24;;;;;;;6.20;4.10;;;11.10;99.90;;;;;;5080001;28;25145;-73
2022/10/19 07:47:50;;;;;;;9.13;3.40;;;11.10;99.90;;;;;;5073893;28;25057;-74
2022/10/19 07:50:16;;;;;;;8.32;3.13;;;11.20;99.90;;;;;;5078165;28;25082;-73
2022/10/19 07:52:41;;;;;;;11.90;3.65;;;11.20;99.90;;;;;;5078178;28;25101;-73
2022/10/19 07:55:07;;;;;;;8.73;3.25;;;11.20;99.90;;;;;;5075766;28;25077;-73
2022/10/19 07:57:33;;;;;;;7.30;3.17;;;11.30;99.90;;;;;;5072955;28;25080;-72
2022/10/19 07:59:58;;;;;;;5.97;3.63;;;11.30;99.90;;;;;;5075619;28;25054;-73
2022/10/19 08:02:24;;;;;;;8.13;3.63;;;11.40;99.90;;;;;;5055432;28;25059;-73
2022/10/19 08:04:50;;;;;;;17.42;3.50;;;11.40;99.90;;;;;;5075058;28;25129;-75
2022/10/19 08:07:15;;;;;;;9.10;3.40;;;11.40;99.90;;;;;;5053312;28;25109;-73
2022/10/19 08:09:41;;;;;;;9.27;3.05;;;11.50;99.90;;;;;;5066102;28;25072;-74
2022/10/19 08:12:07;;;;;;;7.53;3.17;;;11.60;99.90;;;;;;5074949;28;25127;-73
2022/10/19 08:14:33;;;;;;;10.40;3.05;;;11.60;99.90;;;;;;5074762;28;25061;-75
2022/10/19 08:16:59;;;;;;;10.18;3.42;;;11.60;99.90;;;;;;5080342;28;25076;-72
2022/10/19 08:19:25;;;;;;;22.45;3.70;;;11.60;99.90;;;;;;5070067;28;25128;-73
2022/10/19 08:21:50;;;;;;;9.05;3.63;;;11.60;99.90;;;;;;5073140;28;25080;-73
2022/10/19 08:24:17;;;;;;;7.18;3.00;;;11.60;99.90;;;;;;5076870;28;25071;-73
2022/10/19 08:26:43;;;;;;;10.73;3.28;;;11.70;99.90;;;;;;5060547;28;25065;-72
2022/10/19 08:29:12;;;;;;;9.25;3.33;;;11.60;99.90;;;;;;5091495;28;25081;-78
2022/10/19 08:31:38;;;;;;;5.15;3.40;;;11.60;99.90;;;;;;5087396;28;25096;-76
2022/10/19 08:34:04;;;;;;;8.15;3.55;;;11.70;99.90;;;;;;5063675;28;25063;-73
2022/10/19 08:36:31;;;;;;;8.35;2.97;;;11.70;99.90;;;;;;5038959;28;25121;-73
2022/10/19 08:38:57;;;;;;;5.53;3.67;;;11.90;99.90;;;;;;5068643;28;25075;-71
2022/10/19 08:41:41;;;;;;;5.70;3.20;;;12.00;99.90;;;;;;5046593;28;25108;-71
2022/10/19 08:44:22;;;;;;;6.53;3.13;;;12.00;99.90;;;;;;5084077;28;25123;-74
2022/10/19 08:47:02;;;;;;;5.50;3.35;;;12.10;99.90;;;;;;5057265;28;25064;-76
2022/10/19 08:49:30;;;;;;;9.65;3.50;;;11.90;99.90;;;;;;5069767;28;25108;-79
2022/10/19 08:52:04;;;;;;;12.23;3.20;;;11.90;99.90;;;;;;5069680;28;25099;-73
2022/10/19 08:54:52;;;;;;;9.43;3.45;;;11.90;99.90;;;;;;5066408;28;25068;-77
2022/10/19 08:57:52;;;;;;;10.18;3.03;;;12.00;99.90;;;;;;5082573;28;25055;-72
2022/10/19 09:00:48;;;;;;;9.60;3.72;;;12.10;99.90;;;;;;5071462;28;25055;-73
2022/10/19 09:03:45;;;;;;;14.02;3.22;;;12.30;99.90;;;;;;5073744;28;25088;-76
2022/10/19 09:06:39;;;;;;;10.85;2.63;;;12.20;99.90;;;;;;5059734;28;25053;-71
2022/10/19 09:09:05;;;;;;;6.85;4.00;;;12.20;99.90;;;;;;5077613;28;25119;-74
2022/10/19 09:11:39;;;;;;;9.52;2.75;;;12.30;99.90;;;;;;5081997;28;25149;-72
2022/10/19 09:14:25;;;;;;;9.15;2.92;;;12.20;99.90;;;;;;5082479;28;25094;-73
2022/10/19 09:16:53;;;;;;;13.18;2.72;;;12.30;99.90;;;;;;5067807;28;25052;-76
2022/10/19 09:19:28;;;;;;;3.90;2.25;;;12.40;99.90;;;;;;5063809;28;25077;-73
2022/10/19 09:21:56;;;;;;;11.82;2.60;;;12.50;99.90;;;;;;5057762;28;25067;-74
2022/10/19 09:24:38;;;;;;;7.85;2.97;;;12.40;99.90;;;;;;5068967;28;25093;-74
2022/10/19 09:27:06;;;;;;;7.30;3.17;;;12.50;99.90;;;;;;5072253;28;25058;-75
2022/10/19 09:29:36;;;;;;;8.57;2.95;;;12.40;99.90;;;;;;5074063;28;25073;-72
2022/10/19 09:32:08;;;;;;;8.43;3.42;;;12.40;99.90;;;;;;5079292;28;25140;-73
2022/10/19 09:34:40;;;;;;;14.77;2.90;;;12.50;99.90;;;;;;5080019;28;25066;-74
2022/10/19 09:37:05;;;;;;;9.98;3.55;;;12.50;99.90;;;;;;5083297;28;25073;-75
2022/10/19 09:39:31;;;;;;;8.45;2.92;;;12.50;99.90;;;;;;5061874;28;25058;-74
2022/10/19 09:42:29;;;;;;;8.50;2.95;;;12.70;99.90;;;;;;5078297;28;25082;-81
2022/10/19 09:44:55;;;;;;;7.43;2.83;;;12.60;99.90;;;;;;5075047;28;25067;-74
2022/10/19 09:47:31;;;;;;;12.52;3.83;;;12.70;99.90;;;;;;5080402;28;25067;-73
2022/10/19 09:50:14;;;;;;;13.73;2.85;;;12.80;99.90;;;;;;5066044;28;25074;-72
2022/10/19 09:52:42;;;;;;;6.47;2.00;;;12.80;99.90;;;;;;5079505;28;25075;-75
2022/10/19 09:55:13;;;;;;;6.60;2.75;;;12.90;99.90;;;;;;5060979;28;25072;-74
2022/10/19 09:57:48;;;;;;;8.15;2.33;;;12.70;99.90;;;;;;5078279;28;25091;-75
2022/10/19 10:00:22;;;;;;;6.50;2.13;;;12.80;99.90;;;;;;5070876;28;25121;-73
2022/10/19 10:02:53;;;;;;;11.77;2.20;;;12.80;99.90;;;;;;5067993;28;25055;-74
2022/10/19 10:05:28;;;;;;;4.72;2.05;;;12.90;99.90;;;;;;5068498;28;25131;-75
2022/10/19 10:07:54;;;;;;;5.53;1.75;;;12.80;99.90;;;;;;5071976;28;25069;-74
2022/10/19 10:10:26;;;;;;;6.90;1.85;;;12.80;99.90;;;;;;5066619;28;25099;-74
2022/10/19 10:12:53;;;;;;;9.10;1.65;;;12.80;99.90;;;;;;5070351;28;25137;-77
2022/10/19 10:15:25;;;;;;;6.80;1.75;;;12.90;99.90;;;;;;5053092;28;25111;-76
2022/10/19 10:17:52;;;;;;;3.92;1.67;;;12.90;99.90;;;;;;5070875;28;25042;-76
2022/10/19 10:20:27;;;;;;;6.30;1.83;;;13.10;99.90;;;;;;5077258;28;25061;-74
2022/10/19 10:22:58;;;;;;;5.55;1.85;;;13.00;99.90;;;;;;5053583;28;25129;-74
2022/10/19 10:25:27;;;;;;;5.05;1.45;;;13.00;99.90;;;;;;5075137;28;25079;-75
2022/10/19 10:28:18;;;;;;;9.77;2.97;;;13.00;99.90;;;;;;5081358;28;25055;-75
2022/10/19 10:30:46;;;;;;;5.38;2.08;;;13.10;99.90;;;;;;5075429;28;25065;-73
2022/10/19 10:33:25;;;;;;;3.38;1.27;;;13.30;99.90;;;;;;5055559;28;25143;-77
2022/10/19 10:35:56;;;;;;;6.05;1.30;;;13.50;99.90;;;;;;5074931;28;25075;-80
2022/10/19 10:38:34;;;;;;;2.90;1.60;;;13.60;99.90;;;;;;5062399;28;25097;-73
2022/10/19 10:41:06;;;;;;;4.88;1.70;;;13.50;99.90;;;;;;5055003;28;25084;-77
2022/10/19 10:43:34;;;;;;;4.82;1.48;;;13.40;99.90;;;;;;5073125;28;25078;-74
2022/10/19 10:46:04;;;;;;;4.00;1.48;;;13.40;99.90;;;;;;5064555;28;25082;-75
2022/10/19 10:48:32;;;;;;;6.03;2.05;;;13.40;99.90;;;;;;5037879;28;25185;-72
2022/10/19 10:50:59;;;;;;;8.38;2.08;;;13.20;99.90;;;;;;5065867;28;25070;-73
2022/10/19 10:53:44;;;;;;;4.90;1.38;;;13.30;99.90;;;;;;5067954;28;25054;-72
2022/10/19 10:56:27;;;;;;;5.18;1.58;;;13.30;99.90;;;;;;5066013;28;25096;-70
2022/10/19 10:59:04;;;;;;;6.07;2.08;;;13.40;99.90;;;;;;5065568;28;25046;-71
2022/10/19 11:01:39;;;;;;;2.53;1.77;;;13.50;99.90;;;;;;5063762;28;25071;-72
2022/10/19 11:04:12;;;;;;;3.28;1.98;;;13.70;99.90;;;;;;5060792;28;25440;-75
2022/10/19 11:06:43;;;;;;;6.63;1.90;;;14.00;99.90;;;;;;5059067;28;25135;-76
2022/10/19 11:09:21;;;;;;;10.13;2.00;;;14.20;99.90;;;;;;5054544;28;25096;-72
2022/10/19 11:11:49;;;;;;;5.70;2.17;;;14.50;99.90;;;;;;5053988;28;25107;-75
2022/10/19 11:14:42;;;;;;;5.97;1.85;;;14.40;99.90;;;;;;5039305;28;25071;-75
2022/10/19 11:17:19;;;;;;;9.82;2.85;;;14.30;99.90;;;;;;5066732;28;25066;-74
2022/10/19 11:19:45;;;;;;;9.60;1.67;;;14.40;99.90;;;;;;5063713;28;25192;-76
2022/10/19 11:22:25;;;;;;;3.25;1.60;;;14.40;99.90;;;;;;5073403;28;25093;-73
2022/10/19 11:25:18;;;;;;;2.70;1.45;;;14.80;99.90;;;;;;5049601;28;25064;-78
2022/10/19 11:28:14;;;;;;;6.30;1.75;;;14.80;99.90;;;;;;5065967;28;25076;-75
2022/10/19 11:31:23;;;;;;;4.25;2.25;;;14.90;99.90;;;;;;5060816;28;25068;-76
2022/10/19 11:33:54;;;;;;;5.63;1.40;;;15.20;99.90;;;;;;5061574;28;25148;-76
2022/10/19 11:36:35;;;;;;;4.90;1.83;;;15.20;99.90;;;;;;5036347;28;25076;-75
2022/10/19 11:39:21;;;;;;;4.90;1.52;;;15.00;99.90;;;;;;5051851;28;25084;-74
2022/10/19 11:41:46;;;;;;;3.20;1.58;;;15.30;99.90;;;;;;5060386;28;25081;-75
2022/10/19 11:44:20;;;;;;;3.95;1.48;;;15.80;99.90;;;;;;5058991;28;25134;-76
2022/10/19 11:46:56;;;;;;;5.22;1.50;;;15.80;99.90;;;;;;5061292;28;25096;-75
2022/10/19 11:49:38;;;;;;;10.48;3.03;;;16.10;99.90;;;;;;5065124;28;25156;-72
2022/10/19 11:52:30;;;;;;;16.05;2.25;;;16.00;99.90;;;;;;5058896;28;25139;-75
2022/10/19 11:55:05;;;;;;;8.23;1.75;;;16.20;99.90;;;;;;5051626;28;25060;-74
2022/10/19 11:58:01;;;;;;;4.95;1.65;;;16.30;99.90;;;;;;5077309;28;25054;-75
2022/10/19 12:00:29;;;;;;;4.68;1.35;;;16.10;99.90;;;;;;5072131;28;25465;-75
2022/10/19 12:03:17;;;;;;;5.85;1.73;;;16.00;99.90;;;;;;5070228;28;25139;-73
2022/10/19 12:06:02;;;;;;;2.90;1.63;;;16.30;99.90;;;;;;5072106;28;25066;-74
2022/10/19 12:08:30;;;;;;;10.93;2.45;;;16.30;99.90;;;;;;5068723;28;25104;-74
2022/10/19 12:11:26;;;;;;;6.68;1.80;;;16.30;99.90;;;;;;5067512;28;25123;-76
2022/10/19 12:13:58;;;;;;;7.00;1.30;;;16.40;99.90;;;;;;5037219;28;25073;-73
2022/10/19 12:16:34;;;;;;;8.65;1.88;;;16.50;99.90;;;;;;5066028;28;25158;-73
2022/10/19 12:19:03;;;;;;;5.10;1.40;;;16.10;99.90;;;;;;5061666;28;25065;-78
2022/10/19 12:21:39;;;;;;;3.40;1.83;;;16.00;99.90;;;;;;5072158;28;25147;-75
2022/10/19 12:24:19;;;;;;;4.65;1.30;;;16.50;99.90;;;;;;5055114;28;25168;-72
2022/10/19 12:26:45;;;;;;;10.60;1.40;;;16.90;99.90;;;;;;5065585;28;25042;-77
2022/10/19 12:29:16;;;;;;;3.85;1.38;;;17.00;99.90;;;;;;5072799;28;25073;-76
2022/10/19 12:31:43;;;;;;;5.90;1.38;;;16.10;99.90;;;;;;5061699;28;25067;-75
2022/10/19 12:34:39;;;;;;;3.75;1.40;;;16.10;99.90;;;;;;5064778;28;25063;-80
2022/10/19 12:37:17;;;;;;;5.65;1.98;;;16.30;99.90;;;;;;5037951;28;25150;-76
2022/10/19 12:39:52;;;;;;;5.05;2.10;;;16.30;99.90;;;;;;5052876;28;25069;-74
2022/10/19 12:42:35;;;;;;;8.98;1.88;;;15.80;99.90;;;;;;5057284;28;25120;-74
2022/10/19 12:45:17;;;;;;;6.40;1.55;;;16.10;99.90;;;;;;5064516;28;25140;-74
2022/10/19 12:48:11;;;;;;;2.25;1.25;;;16.60;99.90;;;;;;5067544;28;25077;-73
2022/10/19 12:50:49;;;;;;;4.68;1.50;;;16.50;99.90;;;;;;5068839;28;25100;-79
2022/10/19 12:53:25;;;;;;;4.40;2.50;;;16.30;99.90;;;;;;5065603;28;25121;-73
2022/10/19 12:56:21;;;;;;;5.68;1.17;;;16.30;99.90;;;;;;5062210;28;25147;-75
2022/10/19 12:59:22;;;;;;;3.22;1.60;;;16.90;99.90;;;;;;5060039;28;25055;-75
2022/10/19 13:01:48;;;;;;;4.70;1.10;;;16.60;99.90;;;;;;5062739;28;25079;-73
2022/10/19 13:04:19;;;;;;;4.45;1.20;;;16.50;99.90;;;;;;5054691;28;25064;-76